Hauptseite
METAR-TAF:

METAR-TAF

Flughäfen :

Flughafen Curaçao

Curaçao, Niederländische Antillen

Breite: 12-12N, Länge: 068-58W, Höhe: 9 m

Beobachtung

Neuester Wetterbericht von vor 1 Stunde und 17 Minuten, um 10:00 UTC
Wind 13 kt aus Ost
Temperatur 26°C
Luftfeuchtigkeit 74%
Luftdruck 1015 hPa
Sichtweite 10 km oder mehr
Leicht bewölkt in der Höhe von 1800 ft

METAR: TNCC 221000Z 09013KT 9999 FEW018 26/21 Q1015 NOSIG

Zeit: 07:17 (11:17 UTC)

Prognose

Neuester Wetterbericht von vor 7 Stunden und 17 Minuten, um 04:00 UTC
Gültige Prognose vom 22 um 06 UTC bis 23 um 06 UTC
Wind 12 kt aus Ost
Sichtweite 10 km oder mehr
Aufgelockert bewölkt in der Höhe von 1800 ft
Zeitweise
vom 22 um 06 UTC bis 22 um 12 UTC
Durchbrochene Bewölkung in der Höhe von 1400 ft

TAF: TNCC 220400Z 2206/2306 10012KT 9999 SCT018 TEMPO 2206/2212 BKN014

Wetterbeobachtungen und Prognosen von mehr als 4000 Flughäfen (METAR und TAF Bericht).

Die verfügbaren Stationen werden durch gelbe und rote Markierungen auf der Karte dargestellt.

Führen Sie die Maus auf sie, um den Namen der Station zu sehen.

Darauf klicken, um die Beobachtung von Wetterbeobachtungen und Prognosen zu sehen.

Um die Karte zu ändern : klicken Sie auf den grünen Tasten mit einem schwarzen Kreuz Zum Vergrößern, auf den grünen Button mit einem Gedankenstrich zu verkleinern, oder auf die grünen Pfeile für benachbarte Karten.


METAR-TAF: